Time;durP1;ratioP1;P1;durP2;ratioP2;P2;SDS_P1;SDS_P2;PMS_P1;PMS_P2;Temp;Humidity;BMP_temperature;BMP_pressure;BME280_temperature;BME280_humidity;BME280_pressure;Samples;Min_cycle;Max_cycle;Signal;HPM_P1;HPM_P2
2022/07/30 00:01:40;;;;;;;7.33;7.03;;;;;;;16.62;100.00;65934.97;5096016;28;20213;-71
2022/07/30 00:04:06;;;;;;;6.90;6.67;;;;;;;;;;5095783;28;20205;-70
2022/07/30 00:06:33;;;;;;;7.70;7.17;;;;;;;16.50;100.00;65919.53;5095881;28;20198;-70
2022/07/30 00:08:59;;;;;;;8.90;8.50;;;;;;;16.45;100.00;65916.03;5096105;28;20249;-70
2022/07/30 00:11:26;;;;;;;7.77;7.43;;;;;;;16.38;100.00;65913.47;5095504;28;20667;-70
2022/07/30 00:13:53;;;;;;;7.33;7.03;;;;;;;16.31;100.00;65903.03;5095680;28;20644;-70
2022/07/30 00:16:20;;;;;;;11.00;6.83;;;;;;;16.29;100.00;65895.56;5095682;28;20186;-70
2022/07/30 00:18:47;;;;;;;7.40;7.00;;;;;;;16.28;100.00;65895.00;5095369;28;20215;-70
2022/07/30 00:21:13;;;;;;;7.77;7.57;;;;;;;16.26;100.00;65892.78;5095292;28;20660;-70
2022/07/30 00:24:00;;;;;;;8.07;7.40;;;;;;;;;;5095509;28;20660;-70
2022/07/30 00:26:28;;;;;;;8.33;7.93;;;;;;;16.23;100.00;65892.06;5095103;28;20340;-70
2022/07/30 00:28:55;;;;;;;6.83;6.47;;;;;;;16.23;100.00;65890.00;5095867;28;20196;-70
2022/07/30 00:31:21;;;;;;;6.07;5.97;;;;;;;16.20;100.00;65886.66;5095158;28;20269;-70
2022/07/30 00:33:48;;;;;;;7.63;7.23;;;;;;;;;;5094983;28;20644;-69
2022/07/30 00:36:14;;;;;;;6.73;6.63;;;;;;;15.90;100.00;65855.88;5094322;28;20220;-69
2022/07/30 00:38:41;;;;;;;6.10;5.97;;;;;;;15.76;100.00;65840.81;5095509;28;20174;-71
2022/07/30 00:41:07;;;;;;;6.93;6.53;;;;;;;15.68;100.00;65832.47;5076885;28;20559;-71
2022/07/30 00:43:34;;;;;;;7.60;6.90;;;;;;;15.66;100.00;65827.63;5076727;28;20244;-71
2022/07/30 00:46:00;;;;;;;7.00;6.80;;;;;;;15.62;100.00;65836.25;5094868;28;20267;-71
2022/07/30 00:48:27;;;;;;;6.43;6.33;;;;;;;15.61;100.00;65824.69;5076745;28;20197;-71
2022/07/30 00:50:53;;;;;;;7.10;6.63;;;;;;;15.69;100.00;65830.41;5095121;28;20263;-71
2022/07/30 00:53:20;;;;;;;7.67;7.40;;;;;;;15.66;100.00;65838.09;5095019;28;20583;-71
2022/07/30 00:55:46;;;;;;;6.27;6.07;;;;;;;15.66;100.00;65827.09;5076594;28;20241;-71
2022/07/30 00:58:13;;;;;;;6.80;6.70;;;;;;;15.65;100.00;65828.59;5094707;28;20213;-71
2022/07/30 01:00:39;;;;;;;7.53;7.10;;;;;;;15.63;100.00;65826.91;5094675;28;20228;-71
2022/07/30 01:03:06;;;;;;;6.97;6.67;;;;;;;15.51;100.00;65812.97;5094520;28;20209;-71
2022/07/30 01:05:32;;;;;;;7.57;7.30;;;;;;;15.40;100.00;65807.06;5094535;28;20197;-71
2022/07/30 01:07:59;;;;;;;7.03;6.80;;;;;;;;;;5076396;28;20190;-71
2022/07/30 01:10:25;;;;;;;7.13;6.93;;;;;;;15.29;100.00;65789.06;5094759;28;20597;-71
2022/07/30 01:12:53;;;;;;;7.97;7.53;;;;;;;15.30;100.00;65788.09;5076331;28;20230;-71
2022/07/30 01:15:20;;;;;;;8.20;7.90;;;;;;;;;;5076162;28;20695;-70
2022/07/30 01:17:51;;;;;;;7.33;7.13;;;;;;;15.26;100.00;65785.69;5094603;28;20178;-71
2022/07/30 01:20:30;;;;;;;7.93;7.53;;;;;;;15.28;100.00;65787.91;5076089;28;20182;-71
2022/07/30 01:23:05;;;;;;;7.63;7.43;;;;;;;15.27;100.00;65787.38;5075947;28;20297;-71
2022/07/30 01:25:53;;;;;;;7.27;7.13;;;;;;;15.26;100.00;65783.09;5075920;28;20245;-69
2022/07/30 01:28:31;;;;;;;8.23;7.63;;;;;;;15.24;100.00;65780.88;5075809;28;20197;-71
2022/07/30 01:31:00;;;;;;;8.00;7.60;;;;;;;15.23;100.00;65792.84;5075929;28;20318;-71
2022/07/30 01:33:28;;;;;;;7.50;7.30;;;;;;;15.23;100.00;65782.38;5076144;28;20248;-71
2022/07/30 01:35:56;;;;;;;9.27;8.70;;;;;;;15.23;100.00;65788.16;5075774;28;20263;-71
2022/07/30 01:38:26;;;;;;;7.63;7.37;;;;;;;15.23;100.00;65780.31;5093968;28;20174;-71
2022/07/30 01:40:57;;;;;;;7.70;7.40;;;;;;;15.22;100.00;65781.25;5094515;28;20612;-71
2022/07/30 01:43:25;;;;;;;10.13;9.73;;;;;;;15.18;100.00;65782.59;5075717;28;20217;-71
2022/07/30 01:45:52;;;;;;;9.57;9.03;;;;;;;14.97;100.00;65751.38;5075602;28;20586;-71
2022/07/30 01:48:21;;;;;;;10.20;9.40;;;;;;;14.78;100.00;65730.78;5075466;28;20664;-71
2022/07/30 01:50:51;;;;;;;10.43;9.87;;;;;;;14.76;100.00;65729.13;5075651;28;20235;-72
2022/07/30 01:53:19;;;;;;;10.23;9.07;;;;;;;;;;5075579;28;20185;-71
2022/07/30 01:55:48;;;;;;;9.00;8.60;;;;;;;14.61;100.00;65712.44;5093647;28;20237;-71
2022/07/30 01:58:20;;;;;;;8.50;8.33;;;;;;;14.57;100.00;65710.59;5075658;28;20189;-71
2022/07/30 02:00:56;;;;;;;9.07;8.50;;;;;;;14.56;100.00;65710.03;5076068;28;20186;-71
2022/07/30 02:03:26;;;;;;;8.33;8.00;;;;;;;14.58;100.00;65709.66;5075408;28;20684;-71
2022/07/30 02:05:58;;;;;;;8.63;8.23;;;;;;;14.60;100.00;65711.31;5075312;28;20205;-71
2022/07/30 02:08:33;;;;;;;8.10;7.80;;;;;;;;;;5093797;28;20570;-71
2022/07/30 02:11:07;;;;;;;8.30;7.90;;;;;;;14.60;100.00;65713.94;5075350;28;20189;-71
2022/07/30 02:13:43;;;;;;;8.50;8.20;;;;;;;14.62;100.00;65716.16;5075444;28;20598;-70
2022/07/30 02:16:16;;;;;;;8.70;8.30;;;;;;;14.62;100.00;65712.97;5075262;28;20209;-71
2022/07/30 02:19:07;;;;;;;8.63;8.27;;;;;;;14.62;100.00;65718.22;5075271;28;20229;-71
2022/07/30 02:21:40;;;;;;;10.87;10.17;;;;;;;14.62;100.00;65715.59;5075172;28;20194;-71
2022/07/30 02:24:20;;;;;;;11.20;10.37;;;;;;;14.26;100.00;65679.81;5093462;28;20220;-69
2022/07/30 02:26:50;;;;;;;11.73;10.83;;;;;;;14.31;100.00;65674.38;5075189;28;20194;-69
2022/07/30 02:29:19;;;;;;;12.90;11.27;;;;;;;14.32;100.00;65683.31;5093875;28;20197;-69
2022/07/30 02:31:47;;;;;;;10.40;10.10;;;;;;;14.33;100.00;65682.38;5075162;28;20272;-69
2022/07/30 02:34:15;;;;;;;10.20;9.53;;;;;;;14.28;100.00;65678.88;5093641;28;20197;-69
2022/07/30 02:36:43;;;;;;;11.33;10.47;;;;;;;14.27;100.00;65677.75;5075173;28;20197;-71
2022/07/30 02:39:13;;;;;;;10.37;9.87;;;;;;;14.26;100.00;65679.25;5075193;28;20186;-71
2022/07/30 02:41:41;;;;;;;10.23;9.83;;;;;;;14.25;100.00;65676.09;5075175;28;20197;-71
2022/07/30 02:44:16;;;;;;;12.07;11.20;;;;;;;;;;5093060;28;20627;-69
2022/07/30 02:46:43;;;;;;;10.87;10.17;;;;;;;14.26;100.00;65677.19;5075030;28;20725;-71
2022/07/30 02:49:34;;;;;;;11.40;10.07;;;;;;;14.31;100.00;65682.22;5093004;28;20204;-71
2022/07/30 02:52:04;;;;;;;12.20;11.17;;;;;;;14.31;100.00;65679.59;5075733;28;20201;-71
2022/07/30 02:54:31;;;;;;;12.90;11.70;;;;;;;14.35;100.00;65691.88;5075004;28;20559;-70
2022/07/30 02:57:00;;;;;;;12.87;11.97;;;;;;;14.31;100.00;65679.59;5075278;28;20235;-70
2022/07/30 02:59:30;;;;;;;12.90;12.00;;;;;;;14.50;100.00;65708.59;5075928;28;20196;-70
2022/07/30 03:01:57;;;;;;;14.13;12.80;;;;;;;14.44;100.00;65701.34;5078789;28;20243;-70
2022/07/30 03:04:25;;;;;;;15.20;12.00;;;;;;;14.46;100.00;65695.75;5078600;28;20562;-70
2022/07/30 03:06:54;;;;;;;13.63;12.43;;;;;;;14.40;100.00;65689.06;5062192;28;20182;-71
2022/07/30 03:09:21;;;;;;;13.20;12.30;;;;;;;14.34;100.00;65688.16;5097476;28;20209;-71
2022/07/30 03:11:51;;;;;;;13.67;12.60;;;;;;;14.38;100.00;65689.44;5078677;28;20213;-69
2022/07/30 03:14:18;;;;;;;13.10;12.10;;;;;;;;;;5078464;28;20206;-69
2022/07/30 03:16:51;;;;;;;14.30;12.97;;;;;;;14.26;100.00;65674.03;5096690;28;20596;-71
2022/07/30 03:19:19;;;;;;;12.87;10.40;;;;;;;;;;5078465;28;20635;-71
2022/07/30 03:21:45;;;;;;;10.53;10.03;;;;;;;14.17;100.00;65664.59;5096517;28;20239;-71
2022/07/30 03:24:13;;;;;;;10.53;10.13;;;;;;;;;;5096592;28;20218;-70
2022/07/30 03:26:41;;;;;;;12.83;12.03;;;;;;;14.23;100.00;65673.31;5078093;28;20690;-71
2022/07/30 03:29:08;;;;;;;15.07;12.80;;;;;;;;;;5078301;28;20182;-70
2022/07/30 03:31:38;;;;;;;13.37;12.17;;;;;;;14.25;100.00;65675.53;5078146;28;20664;-70
2022/07/30 03:34:05;;;;;;;13.00;12.20;;;;;;;;;;5078059;28;20208;-70
2022/07/30 03:36:35;;;;;;;11.17;10.67;;;;;;;14.15;100.00;65661.81;5096517;28;20656;-70
2022/07/30 03:39:03;;;;;;;14.50;13.03;;;;;;;14.11;100.00;65652.16;5078035;28;20190;-71
2022/07/30 03:41:31;;;;;;;12.73;11.43;;;;;;;14.14;100.00;65665.91;5078007;28;20666;-71
2022/07/30 03:43:59;;;;;;;10.10;9.50;;;;;;;14.13;100.00;65659.59;5077819;28;20749;-70
2022/07/30 03:46:26;;;;;;;10.57;9.80;;;;;;;14.13;100.00;65672.63;5077894;28;20197;-70
2022/07/30 03:48:53;;;;;;;10.63;10.13;;;;;;;14.14;100.00;65663.31;5077839;28;20668;-70
2022/07/30 03:51:20;;;;;;;13.50;12.60;;;;;;;;;;5077830;28;20259;-70
2022/07/30 03:53:47;;;;;;;12.93;12.00;;;;;;;14.13;100.00;65662.19;5077697;28;20239;-70
2022/07/30 03:56:33;;;;;;;22.20;12.57;;;;;;;14.13;100.00;65662.75;5095863;28;20174;-69
2022/07/30 03:59:24;;;;;;;13.93;13.13;;;;;;;14.11;100.00;65659.97;5078552;28;20588;-69
2022/07/30 04:01:50;;;;;;;11.47;10.60;;;;;;;14.09;100.00;65660.38;5077581;28;20251;-71
2022/07/30 04:04:35;;;;;;;10.27;9.73;;;;;;;14.07;100.00;65658.69;5077592;28;20232;-69
2022/07/30 04:07:01;;;;;;;10.30;9.80;;;;;;;14.08;100.00;65657.19;5095920;28;20178;-71
2022/07/30 04:09:28;;;;;;;14.33;13.33;;;;;;;14.15;100.00;65674.88;5077682;28;20267;-71
2022/07/30 04:11:57;;;;;;;15.13;14.10;;;;;;;14.14;100.00;65660.69;5077970;28;20667;-71
2022/07/30 04:14:25;;;;;;;13.83;12.93;;;;;;;14.07;100.00;65655.50;5077373;28;20229;-70
2022/07/30 04:17:02;;;;;;;13.60;12.43;;;;;;;14.08;100.00;65656.66;5077305;28;20660;-71
2022/07/30 04:19:38;;;;;;;13.60;12.27;;;;;;;;;;5077298;28;20182;-71
2022/07/30 04:22:06;;;;;;;15.33;13.87;;;;;;;;;;5077288;28;20185;-70
2022/07/30 04:24:36;;;;;;;19.13;13.70;;;;;;;14.01;100.00;65649.97;5077018;28;20760;-71
2022/07/30 04:27:03;;;;;;;16.73;14.50;;;;;;;;;;5077555;28;20217;-71
2022/07/30 04:29:30;;;;;;;15.47;14.37;;;;;;;;;;5077277;28;20185;-71
2022/07/30 04:31:57;;;;;;;17.80;15.07;;;;;;;13.92;100.00;65642.56;5095522;28;20170;-71
2022/07/30 04:34:32;;;;;;;19.10;15.20;;;;;;;14.01;100.00;65647.38;5095586;28;20209;-70
2022/07/30 04:36:59;;;;;;;17.67;16.00;;;;;;;14.03;100.00;65649.03;5076945;28;20197;-70
2022/07/30 04:39:27;;;;;;;17.23;15.43;;;;;;;14.01;100.00;65649.97;5076858;28;20200;-71
2022/07/30 04:41:54;;;;;;;18.13;14.83;;;;;;;;;;5076885;28;20197;-71
2022/07/30 04:44:34;;;;;;;16.07;14.63;;;;;;;14.09;100.00;65655.16;5076889;28;20222;-71
2022/07/30 04:47:21;;;;;;;16.67;15.00;;;;;;;14.25;100.00;65676.09;5076946;28;20200;-71
2022/07/30 04:50:08;;;;;;;24.07;16.20;;;;;;;14.32;100.00;65686.50;5077004;28;20193;-71
2022/07/30 04:52:36;;;;;;;30.80;16.80;;;;;;;14.28;100.00;65679.41;5076577;28;20281;-71
2022/07/30 04:55:06;;;;;;;22.33;17.30;;;;;;;14.34;100.00;65682.94;5076532;28;20229;-70
2022/07/30 04:57:37;;;;;;;27.20;19.23;;;;;;;14.42;100.00;65691.28;5077364;28;20193;-70
2022/07/30 05:00:05;;;;;;;26.70;19.80;;;;;;;14.34;100.00;65682.94;5077386;28;20185;-71
2022/07/30 05:02:38;;;;;;;24.03;19.07;;;;;;;14.28;100.00;65678.88;5077021;28;20237;-72
2022/07/30 05:05:06;;;;;;;33.40;19.50;;;;;;;14.34;100.00;65688.16;5094804;28;20731;-71
2022/07/30 05:07:35;;;;;;;31.63;20.63;;;;;;;14.32;100.00;65691.16;5077211;28;20651;-71
2022/07/30 05:10:02;;;;;;;31.80;20.00;;;;;;;14.38;100.00;65690.00;5076622;28;20189;-71
2022/07/30 05:12:36;;;;;;;31.87;21.07;;;;;;;14.41;100.00;65690.16;5076220;28;20204;-71
2022/07/30 05:15:08;;;;;;;40.77;22.10;;;;;;;14.35;100.00;65686.66;5076216;28;20217;-70
2022/07/30 05:17:35;;;;;;;33.57;21.87;;;;;;;14.41;100.00;65693.31;5076722;28;20186;-70
2022/07/30 05:20:05;;;;;;;36.60;20.97;;;;;;;14.45;100.00;65689.94;5076038;28;20281;-71
2022/07/30 05:22:48;;;;;;;33.43;21.90;;;;;;;;;;5075632;28;20182;-71
2022/07/30 05:25:17;;;;;;;36.17;21.20;;;;;;;14.46;100.00;65698.91;5075865;28;20218;-71
2022/07/30 05:27:44;;;;;;;30.80;21.00;;;;;;;14.49;100.00;65699.63;5075806;28;20202;-71
2022/07/30 05:30:11;;;;;;;37.67;21.80;;;;;;;14.43;100.00;65697.59;5076491;28;20199;-71
2022/07/30 05:32:42;;;;;;;32.43;20.43;;;;;;;;;;5076518;28;20540;-71
2022/07/30 05:35:12;;;;;;;44.33;21.47;;;;;;;14.47;100.00;65699.47;5076134;28;20210;-71
2022/07/30 05:37:38;;;;;;;34.57;20.80;;;;;;;14.50;100.00;65703.38;5075766;28;20277;-71
2022/07/30 05:40:05;;;;;;;40.10;21.93;;;;;;;;;;5075730;28;20196;-71
2022/07/30 05:42:50;;;;;;;41.80;22.13;;;;;;;;;;5094126;28;20197;-71
2022/07/30 05:45:16;;;;;;;40.20;21.77;;;;;;;14.46;100.00;65698.38;5075576;28;20237;-71
2022/07/30 05:47:43;;;;;;;37.20;21.13;;;;;;;;;;5075628;28;20668;-71
2022/07/30 05:50:09;;;;;;;31.67;21.23;;;;;;;;;;5076433;28;20186;-70
2022/07/30 05:52:35;;;;;;;36.90;22.20;;;;;;;14.53;100.00;65706.16;5075513;28;20194;-71
2022/07/30 05:55:14;;;;;;;37.50;22.10;;;;;;;;;;5075598;28;20208;-71
2022/07/30 05:57:51;;;;;;;42.27;20.20;;;;;;;;;;5075457;28;20204;-71
2022/07/30 06:00:17;;;;;;;36.17;20.87;;;;;;;;;;5093466;28;20220;-71
2022/07/30 06:02:50;;;;;;;38.87;22.00;;;;;;;14.72;100.00;65724.13;5075807;28;20217;-71
2022/07/30 06:05:19;;;;;;;41.30;22.87;;;;;;;;;;5093640;28;20225;-71
2022/07/30 06:07:47;;;;;;;42.97;23.00;;;;;;;14.72;100.00;65726.72;5075432;28;20200;-71
2022/07/30 06:10:15;;;;;;;34.30;20.27;;;;;;;;;;5075654;28;20529;-71
2022/07/30 06:12:41;;;;;;;35.50;21.67;;;;;;;14.84;100.00;65742.69;5075305;28;20189;-71
2022/07/30 06:15:09;;;;;;;36.53;22.07;;;;;;;;;;5075300;28;20579;-71
2022/07/30 06:17:44;;;;;;;34.43;21.50;;;;;;;;;;5075149;28;20719;-71
2022/07/30 06:20:37;;;;;;;47.20;23.70;;;;;;;14.89;100.00;65745.63;5075644;28;20193;-71
2022/07/30 06:23:14;;;;;;;88.67;32.63;;;;;;;14.98;100.00;65755.09;5075443;28;20197;-71
2022/07/30 06:26:16;;;;;;;95.50;35.37;;;;;;;15.02;100.00;65756.94;5031128;28;20206;-70
2022/07/30 06:28:42;;;;;;;109.63;38.93;;;;;;;15.01;100.00;65756.38;5063124;28;20206;-70
2022/07/30 06:31:21;;;;;;;101.40;39.00;;;;;;;15.09;100.00;65767.91;5075394;28;20664;-70
2022/07/30 06:33:47;;;;;;;61.17;30.10;;;;;;;15.08;100.00;65766.78;5075109;28;20189;-71
2022/07/30 06:36:14;;;;;;;75.07;34.50;;;;;;;15.08;100.00;65772.03;5078563;28;20194;-71
2022/07/30 06:39:01;;;;;;;79.77;33.37;;;;;;;;;;5079231;28;20319;-71
2022/07/30 06:41:46;;;;;;;80.33;31.67;;;;;;;15.17;100.00;65773.06;5097849;28;20280;-71
2022/07/30 06:44:13;;;;;;;43.77;25.13;;;;;;;;;;5078899;28;20225;-70
2022/07/30 06:46:55;;;;;;;46.67;23.63;;;;;;;;;;5097190;28;20511;-70
2022/07/30 06:49:24;;;;;;;47.40;24.03;;;;;;;15.21;100.00;65769.66;5078997;28;20259;-70
2022/07/30 06:51:50;;;;;;;52.00;27.83;;;;;;;15.26;100.00;65783.09;5078888;28;20190;-70
2022/07/30 06:54:17;;;;;;;60.20;28.10;;;;;;;;;;5097225;28;20702;-70
2022/07/30 06:56:58;;;;;;;63.73;28.70;;;;;;;15.27;100.00;65787.38;5079098;28;20197;-70
2022/07/30 06:59:26;;;;;;;69.77;32.40;;;;;;;;;;5078732;28;20564;-70
2022/07/30 07:02:08;;;;;;;63.37;31.37;;;;;;;15.20;100.00;65779.56;5079283;28;20278;-70
2022/07/30 07:04:53;;;;;;;51.13;27.13;;;;;;;15.24;100.00;65789.25;5078759;28;20228;-71
2022/07/30 07:07:19;;;;;;;59.37;27.77;;;;;;;15.29;100.00;65786.44;5078479;28;20193;-71
2022/07/30 07:10:08;;;;;;;50.50;26.60;;;;;;;;;;5078917;28;20713;-71
2022/07/30 07:12:43;;;;;;;44.03;23.50;;;;;;;;;;5097252;28;20612;-71
2022/07/30 07:15:12;;;;;;;51.53;24.90;;;;;;;;;;5078393;28;20205;-71
2022/07/30 07:17:40;;;;;;;45.40;23.33;;;;;;;;;;5078452;28;20247;-71
2022/07/30 07:20:19;;;;;;;56.87;28.13;;;;;;;15.48;100.00;65812.81;5078401;28;20189;-71
2022/07/30 07:22:52;;;;;;;54.93;26.90;;;;;;;;;;5078695;28;20273;-71
2022/07/30 07:25:19;;;;;;;55.83;27.40;;;;;;;15.48;100.00;65810.19;5078430;28;20221;-71
2022/07/30 07:27:45;;;;;;;58.60;27.03;;;;;;;;;;5077448;28;20571;-71
2022/07/30 07:30:31;;;;;;;50.40;26.83;;;;;;;;;;5077023;28;20182;-72
2022/07/30 07:32:58;;;;;;;44.93;25.00;;;;;;;;;;5060695;28;20247;-72
2022/07/30 07:35:24;;;;;;;42.90;24.17;;;;;;;15.61;100.00;65822.06;5060365;28;20202;-72
2022/07/30 07:37:51;;;;;;;44.17;23.50;;;;;;;;;;5076818;28;20264;-70
2022/07/30 07:40:21;;;;;;;36.33;22.30;;;;;;;15.70;100.00;65834.16;5077944;28;20600;-71
2022/07/30 07:42:50;;;;;;;37.27;22.30;;;;;;;15.75;100.00;65837.09;5077306;28;20197;-71
2022/07/30 07:45:17;;;;;;;41.77;20.90;;;;;;;;;;5076192;28;20238;-70
2022/07/30 07:47:55;;;;;;;35.87;20.87;;;;;;;;;;5077374;28;20198;-71
2022/07/30 07:50:42;;;;;;;31.97;20.17;;;;;;;;;;5094908;28;20196;-71
2022/07/30 07:53:15;;;;;;;45.57;22.07;;;;;;;16.23;100.00;65884.22;5076892;28;20655;-71
2022/07/30 07:55:43;;;;;;;43.93;23.30;;;;;;;;;;5076702;28;20210;-72
2022/07/30 07:58:12;;;;;;;34.10;21.40;;;;;;;16.48;100.00;65917.28;5076556;28;20293;-74
2022/07/30 08:00:43;;;;;;;30.13;20.90;;;;;;;16.59;100.00;65929.00;5076656;28;20280;-71
2022/07/30 08:03:10;;;;;;;33.13;22.30;;;;;;;16.72;100.00;65943.50;5076809;28;20219;-72
2022/07/30 08:05:37;;;;;;;43.97;24.73;;;;;;;16.75;100.00;65949.47;5076285;28;20221;-72
2022/07/30 08:08:43;;;;;;;40.33;22.40;;;;;;;16.92;100.00;65959.44;5094372;28;20656;-72
2022/07/30 08:11:29;;;;;;;32.13;20.43;;;;;;;;;;5094610;28;20213;-72
2022/07/30 08:14:31;;;;;;;31.60;20.90;;;;;;;;;;5094246;28;20216;-70
2022/07/30 08:17:16;;;;;;;27.67;19.60;;;;;;;;;;5094815;28;20574;-71
2022/07/30 08:20:00;;;;;;;26.57;18.17;;;;;;;;;;5076463;28;20243;-71
2022/07/30 08:22:26;;;;;;;27.17;18.77;;;;;;;;;;5076212;28;20277;-72
2022/07/30 08:24:53;;;;;;;22.67;18.07;;;;;;;17.42;100.00;66021.94;5075946;28;20206;-71
2022/07/30 08:27:19;;;;;;;31.73;18.90;;;;;;;;;;5076534;28;20686;-71
2022/07/30 08:29:46;;;;;;;29.23;19.50;;;;;;;17.63;100.00;66042.16;5077050;28;20190;-71
2022/07/30 08:32:12;;;;;;;24.43;17.67;;;;;;;17.74;100.00;66057.66;5077051;28;20212;-71
2022/07/30 08:34:39;;;;;;;19.43;16.83;;;;;;;;;;5076866;28;20673;-70
2022/07/30 08:37:07;;;;;;;21.97;16.47;;;;;;;17.94;100.00;66078.84;5076919;28;20288;-71
2022/07/30 08:39:34;;;;;;;35.23;15.10;;;;;;;;;;5076999;28;20243;-72
2022/07/30 08:42:02;;;;;;;21.07;15.57;;;;;;;;;;5094914;28;20660;-71
2022/07/30 08:44:31;;;;;;;17.60;13.80;;;;;;;18.12;100.00;66098.91;5076710;28;20213;-72
2022/07/30 08:46:58;;;;;;;15.67;14.07;;;;;;;18.28;100.00;66114.13;5077268;28;20548;-72
2022/07/30 08:49:36;;;;;;;15.57;14.20;;;;;;;;;;5076938;28;20192;-72
2022/07/30 08:52:03;;;;;;;16.10;14.43;;;;;;;;;;5076677;28;20186;-72
2022/07/30 08:54:44;;;;;;;16.97;12.63;;;;;;;18.61;100.00;66153.06;5076512;28;20710;-71
2022/07/30 08:57:11;;;;;;;13.90;12.67;;;;;;;;;;5075796;28;20568;-72
2022/07/30 08:59:38;;;;;;;14.00;12.77;;;;;;;18.83;100.00;66177.06;5077289;28;20198;-72
2022/07/30 09:02:26;;;;;;;15.20;11.03;;;;;;;;;;5077262;28;20216;-72
2022/07/30 09:05:00;;;;;;;12.20;11.43;;;;;;;;;;5077045;28;20228;-71
2022/07/30 09:07:26;;;;;;;11.20;10.47;;;;;;;;;;5076313;28;20193;-72
2022/07/30 09:09:52;;;;;;;11.70;10.87;;;;;;;;;;5076327;28;20228;-71
2022/07/30 09:12:34;;;;;;;12.13;11.07;;;;;;;;;;5076183;28;20190;-71
2022/07/30 09:15:11;;;;;;;9.13;8.53;;;;;;;19.32;98.41;66222.78;5076133;28;20205;-71
2022/07/30 09:17:47;;;;;;;10.20;9.40;;;;;;;19.48;100.00;66245.34;5094561;28;20585;-72
2022/07/30 09:20:13;;;;;;;10.03;9.37;;;;;;;19.52;99.73;66241.94;5094816;28;20199;-72
2022/07/30 09:22:52;;;;;;;9.43;8.77;;;;;;;19.47;96.93;66244.25;5076014;28;20243;-72
2022/07/30 09:25:40;;;;;;;9.43;8.73;;;;;;;19.45;98.60;66237.31;5094412;28;20205;-72
2022/07/30 09:28:31;;;;;;;8.30;7.90;;;;;;;19.65;96.78;66255.94;5094101;28;20201;-72
2022/07/30 09:31:10;;;;;;;8.47;8.07;;;;;;;19.76;95.53;66279.28;5094364;28;20620;-72
2022/07/30 09:33:55;;;;;;;7.17;6.70;;;;;;;;;;5094543;28;20177;-71
2022/07/30 09:36:40;;;;;;;7.87;7.27;;;;;;;19.95;92.45;66299.97;5094546;28;20180;-72
2022/07/30 09:39:32;;;;;;;8.80;8.30;;;;;;;;;;5078700;28;20174;-72
2022/07/30 09:42:19;;;;;;;7.77;7.37;;;;;;;;;;5094291;28;20295;-72
2022/07/30 09:44:46;;;;;;;8.43;7.80;;;;;;;;;;5076140;28;20399;-72
2022/07/30 09:47:31;;;;;;;8.17;7.77;;;;;;;20.20;88.91;66326.78;5075889;28;20736;-72
2022/07/30 09:50:08;;;;;;;8.50;7.87;;;;;;;;;;5094002;28;20228;-72
2022/07/30 09:52:36;;;;;;;7.83;7.50;;;;;;;;;;5059120;28;20587;-72
2022/07/30 09:55:29;;;;;;;7.73;7.17;;;;;;;20.25;88.14;66332.38;5075738;28;20687;-73
2022/07/30 09:58:05;;;;;;;8.17;7.07;;;;;;;;;;5075568;28;20591;-73
2022/07/30 10:00:34;;;;;;;7.33;6.93;;;;;;;20.38;87.05;66349.00;5075824;28;20674;-72
2022/07/30 10:03:32;;;;;;;6.83;6.57;;;;;;;;;;5075743;28;20207;-72
2022/07/30 10:06:35;;;;;;;8.13;5.83;;;;;;;;;;5093463;28;20744;-72
2022/07/30 10:09:23;;;;;;;5.33;5.20;;;;;;;;;;5076098;28;20189;-72
2022/07/30 10:11:54;;;;;;;8.13;7.70;;;;;;;20.84;85.57;66386.69;5075377;28;20540;-72
2022/07/30 10:14:22;;;;;;;6.70;6.37;;;;;;;;;;5075245;28;20210;-74
2022/07/30 10:16:58;;;;;;;5.73;5.27;;;;;;;21.40;82.11;66456.16;5075320;28;20185;-73
2022/07/30 10:19:26;;;;;;;6.87;6.77;;;;;;;21.31;79.98;66438.19;5075281;28;20194;-73
2022/07/30 10:22:26;;;;;;;7.40;6.90;;;;;;;;;;5052059;28;20204;-72
2022/07/30 10:25:16;;;;;;;7.23;6.90;;;;;;;;;;5093059;28;20210;-73
2022/07/30 10:28:04;;;;;;;10.30;7.90;;;;;;;;;;5092918;28;20189;-73
2022/07/30 10:30:32;;;;;;;7.53;7.23;;;;;;;20.85;83.14;66388.38;5075080;28;20190;-72
2022/07/30 10:33:00;;;;;;;8.00;7.40;;;;;;;20.97;83.75;66411.78;5093762;28;20170;-72
2022/07/30 10:35:27;;;;;;;7.07;6.67;;;;;;;21.08;82.98;66420.91;5093449;28;20205;-72
2022/07/30 10:38:09;;;;;;;7.77;7.40;;;;;;;20.98;83.13;66412.34;5093712;28;20174;-72
2022/07/30 10:40:47;;;;;;;6.50;6.40;;;;;;;21.03;83.09;66418.50;5093435;28;20620;-71
2022/07/30 10:43:34;;;;;;;6.60;6.50;;;;;;;;;;5093426;28;20178;-72
2022/07/30 10:46:19;;;;;;;5.63;5.33;;;;;;;;;;5093055;28;20263;-73
2022/07/30 10:48:48;;;;;;;6.67;6.17;;;;;;;21.69;76.21;66488.63;5093089;28;20220;-73
2022/07/30 10:51:16;;;;;;;5.87;5.60;;;;;;;21.73;76.25;66486.69;5093354;28;20193;-73
2022/07/30 10:53:59;;;;;;;7.00;6.37;;;;;;;;;;5093117;28;20196;-73
2022/07/30 10:56:26;;;;;;;7.10;7.00;;;;;;;;;;5093420;28;20648;-73
2022/07/30 10:59:00;;;;;;;6.90;6.53;;;;;;;;;;5101629;28;20258;-72
2022/07/30 11:01:46;;;;;;;6.17;5.87;;;;;;;;;;5109908;28;20223;-72
2022/07/30 11:04:23;;;;;;;5.30;5.10;;;;;;;21.87;73.40;66508.22;5113466;28;20254;-73
2022/07/30 11:07:13;;;;;;;6.53;5.10;;;;;;;;;;5113511;28;20201;-73
2022/07/30 11:09:42;;;;;;;7.00;6.70;;;;;;;;;;5113654;28;20189;-73
2022/07/30 11:12:37;;;;;;;9.23;8.67;;;;;;;;;;5113489;28;20216;-73
2022/07/30 11:15:05;;;;;;;7.63;7.33;;;;;;;21.85;73.08;66511.25;5113007;28;20580;-72
2022/07/30 11:18:03;;;;;;;6.33;6.13;;;;;;;21.92;69.79;66513.22;5113540;28;20161;-73
2022/07/30 11:20:37;;;;;;;4.00;4.00;;;;;;;;;;5097222;28;20616;-73
2022/07/30 11:23:08;;;;;;;4.93;4.50;;;;;;;;;;5117216;28;20173;-73
2022/07/30 11:25:34;;;;;;;5.37;5.07;;;;;;;22.39;66.40;66573.25;5116789;28;20292;-73
2022/07/30 11:28:38;;;;;;;5.60;5.40;;;;;;;22.30;66.03;66562.63;5116707;28;20227;-73
2022/07/30 11:31:25;;;;;;;4.03;3.93;;;;;;;;;;5117055;28;20735;-73
2022/07/30 11:34:17;;;;;;;5.40;5.10;;;;;;;;;;5116859;28;20178;-72
2022/07/30 11:37:07;;;;;;;3.67;3.37;;;;;;;22.65;61.50;66588.59;5116952;28;20196;-73
2022/07/30 11:39:53;;;;;;;3.10;2.90;;;;;;;22.65;59.44;66593.88;5117143;28;20173;-73
2022/07/30 11:42:26;;;;;;;2.90;2.80;;;;;;;;;;5116483;28;20562;-73
2022/07/30 11:45:15;;;;;;;2.50;2.50;;;;;;;22.71;64.34;66595.31;5116695;28;20240;-72
2022/07/30 11:47:43;;;;;;;2.97;2.97;;;;;;;22.69;65.33;66606.31;5116356;28;20200;-72
2022/07/30 11:50:28;;;;;;;3.00;2.90;;;;;;;22.89;66.57;66614.38;5116374;28;20189;-72
2022/07/30 11:53:04;;;;;;;3.27;3.17;;;;;;;22.97;63.72;66620.69;5116380;28;20667;-73
2022/07/30 11:55:35;;;;;;;2.47;2.37;;;;;;;;;;5116533;28;20208;-72
2022/07/30 11:58:03;;;;;;;2.67;2.57;;;;;;;;;;5116536;28;20312;-73
2022/07/30 12:00:33;;;;;;;2.83;2.73;;;;;;;;;;5116202;28;20591;-73
2022/07/30 12:02:59;;;;;;;2.80;2.60;;;;;;;23.28;62.92;66657.50;5116405;28;20260;-72
2022/07/30 12:05:29;;;;;;;2.80;2.77;;;;;;;23.37;62.29;66667.03;5115943;28;20208;-72
2022/07/30 12:07:57;;;;;;;2.70;2.60;;;;;;;23.31;61.94;66658.22;5116392;28;20213;-73
2022/07/30 12:10:24;;;;;;;2.00;1.90;;;;;;;23.18;62.29;66646.31;5116048;28;20181;-72
2022/07/30 12:13:04;;;;;;;2.53;2.37;;;;;;;;;;5116265;28;20530;-72
2022/07/30 12:15:34;;;;;;;5.13;2.37;;;;;;;;;;5115827;28;20698;-73
2022/07/30 12:18:00;;;;;;;2.50;2.50;;;;;;;23.42;62.69;66677.94;5115897;28;20247;-73
2022/07/30 12:20:52;;;;;;;2.53;2.53;;;;;;;;;;5115713;28;20225;-73
2022/07/30 12:23:18;;;;;;;2.10;2.10;;;;;;;;;;5116041;28;20177;-73
2022/07/30 12:25:47;;;;;;;2.10;2.00;;;;;;;23.93;56.62;66726.03;5115524;28;20209;-73
2022/07/30 12:28:20;;;;;;;2.47;2.37;;;;;;;;;;5115599;28;20193;-73
2022/07/30 12:30:47;;;;;;;2.40;2.40;;;;;;;23.77;59.14;66711.31;5115944;28;20177;-73
2022/07/30 12:33:14;;;;;;;4.50;2.33;;;;;;;;;;5114674;28;20197;-73
2022/07/30 12:35:41;;;;;;;6.00;2.60;;;;;;;;;;5115595;28;20235;-73
2022/07/30 12:38:08;;;;;;;1.93;1.93;;;;;;;;;;5115670;28;20697;-73
2022/07/30 12:40:49;;;;;;;2.17;2.17;;;;;;;23.80;56.67;66720.56;5115749;28;20231;-73
2022/07/30 12:43:16;;;;;;;1.90;1.90;;;;;;;;;;5115642;28;20574;-73
2022/07/30 12:45:42;;;;;;;3.60;2.63;;;;;;;;;;5115280;28;20212;-73